Rode Zora V. Amsterd — DIPU2 — position and weather

sailwx.info

Track history (hours):
 
Tides and Currents Weather Stations Pressure Air Temp Water Temp Dewpoint Dewpoint Depression Visibility Wind Speed Wind Dir Waves Ship Positions

Rode Zora V. Amsterd

Last reported at 2018-Feb-18 19:25 UTC. Time now 2018-Feb-18 19:33 UTC.
Position N 18°04' W 063°05'.

Length 12 m.

Type: Sailing vessel. MMSI: 211658760.

Date/timePositionNaut miles runAvg speedWind from/ knotsBaromVisibWave heightAir tempDewpointWater temp
2018-Feb-18 19:25N 18°04' W 063°05'0 0.0
2018-Feb-18 18:51N 18°04' W 063°05'0 0.0
2018-Feb-18 18:28N 18°04' W 063°05'0 0.0
2018-Feb-18 17:51N 18°04' W 063°05'0 0.0
2018-Feb-18 17:27N 18°04' W 063°05'0 0.0
2018-Feb-18 16:58N 18°04' W 063°05'0 0.0
2018-Feb-18 16:30N 18°04' W 063°05'0 0.0
2018-Feb-18 15:58N 18°04' W 063°05'0 0.0
2018-Feb-18 13:16N 18°04' W 063°05'0 0.0
2018-Feb-18 11:42N 18°04' W 063°05'0 0.0
2018-Feb-16 22:48N 18°04' W 063°06'0 0.0
2018-Feb-16 22:26N 18°04' W 063°06'0 0.0
2018-Feb-16 21:52N 18°04' W 063°06'0 0.0
2018-Feb-16 21:26N 18°04' W 063°06'0 0.0
2018-Feb-16 20:58N 18°04' W 063°06'1 1.0
2018-Feb-16 20:22N 18°04' W 063°06'2 3.1
2018-Feb-16 19:37N 18°05' W 063°08'1 2.9
2018-Feb-16 19:26N 18°04' W 063°09'3 4.7
2018-Feb-16 18:46N 18°02' W 063°08'2 5.5
2018-Feb-16 18:23N 17°60' W 063°07'3 6.1
2018-Feb-16 17:55N 17°58' W 063°05'3 6.2
2018-Feb-16 17:22N 17°54' W 063°03'3 6.3
2018-Feb-16 16:55N 17°52' W 063°03'3 5.9
2018-Feb-16 16:24N 17°49' W 063°01'3 6.1
2018-Feb-16 15:58N 17°46' W 063°00'4 6.3
2018-Feb-16 15:23N 17°43' W 062°59'3 6.4
2018-Feb-16 14:52N 17°40' W 062°58'63 5.8
2018-Feb-16 04:00N 16°47' W 062°22'3 5.7
2018-Feb-16 03:29N 16°45' W 062°20'3 5.3
2018-Feb-16 03:00N 16°43' W 062°18'7 4.8
2018-Feb-16 01:28N 16°39' W 062°12'3 7.3
2018-Feb-16 00:59N 16°37' W 062°09'4 7.4
2018-Feb-16 00:29N 16°35' W 062°06'4 7.0
2018-Feb-15 23:57N 16°32' W 062°03'4 7.0
2018-Feb-15 23:20N 16°28' W 062°00'28 6.3
2018-Feb-15 18:58N 16°04' W 061°47'  
Track history (hours):
 
Tides and Currents Weather Stations Pressure Air Temp Water Temp Dewpoint Dewpoint Depression Visibility Wind Speed Wind Dir Waves Ship Positions

Rode Zora V. Amsterd

Last reported at 2018-Feb-18 19:25 UTC. Time now 2018-Feb-18 19:33 UTC.
Position N 18°04' W 063°05'.

Length 12 m.

Type: Sailing vessel. MMSI: 211658760.

Date/timePositionNaut miles runAvg speedWind from/ knotsBaromVisibWave heightAir tempDewpointWater temp
2018-Feb-18 19:25N 18°04' W 063°05'0 0.0
2018-Feb-18 18:51N 18°04' W 063°05'0 0.0
2018-Feb-18 18:28N 18°04' W 063°05'0 0.0
2018-Feb-18 17:51N 18°04' W 063°05'0 0.0
2018-Feb-18 17:27N 18°04' W 063°05'0 0.0
2018-Feb-18 16:58N 18°04' W 063°05'0 0.0
2018-Feb-18 16:30N 18°04' W 063°05'0 0.0
2018-Feb-18 15:58N 18°04' W 063°05'0 0.0
2018-Feb-18 13:16N 18°04' W 063°05'0 0.0
2018-Feb-18 11:42N 18°04' W 063°05'0 0.0
2018-Feb-16 22:48N 18°04' W 063°06'0 0.0
2018-Feb-16 22:26N 18°04' W 063°06'0 0.0
2018-Feb-16 21:52N 18°04' W 063°06'0 0.0
2018-Feb-16 21:26N 18°04' W 063°06'0 0.0
2018-Feb-16 20:58N 18°04' W 063°06'1 1.0
2018-Feb-16 20:22N 18°04' W 063°06'2 3.1
2018-Feb-16 19:37N 18°05' W 063°08'1 2.9
2018-Feb-16 19:26N 18°04' W 063°09'3 4.7
2018-Feb-16 18:46N 18°02' W 063°08'2 5.5
2018-Feb-16 18:23N 17°60' W 063°07'3 6.1
2018-Feb-16 17:55N 17°58' W 063°05'3 6.2
2018-Feb-16 17:22N 17°54' W 063°03'3 6.3
2018-Feb-16 16:55N 17°52' W 063°03'3 5.9
2018-Feb-16 16:24N 17°49' W 063°01'3 6.1
2018-Feb-16 15:58N 17°46' W 063°00'4 6.3
2018-Feb-16 15:23N 17°43' W 062°59'3 6.4
2018-Feb-16 14:52N 17°40' W 062°58'63 5.8
2018-Feb-16 04:00N 16°47' W 062°22'3 5.7
2018-Feb-16 03:29N 16°45' W 062°20'3 5.3
2018-Feb-16 03:00N 16°43' W 062°18'7 4.8
2018-Feb-16 01:28N 16°39' W 062°12'3 7.3
2018-Feb-16 00:59N 16°37' W 062°09'4 7.4
2018-Feb-16 00:29N 16°35' W 062°06'4 7.0
2018-Feb-15 23:57N 16°32' W 062°03'4 7.0
2018-Feb-15 23:20N 16°28' W 062°00'28 6.3
2018-Feb-15 18:58N 16°04' W 061°47'  

Dump ship's entire track history